Time;durP1;ratioP1;P1;durP2;ratioP2;P2;SDS_P1;SDS_P2;PMS_P1;PMS_P2;Temp;Humidity;BMP_temperature;BMP_pressure;BME280_temperature;BME280_humidity;BME280_pressure;Samples;Min_cycle;Max_cycle;Signal;HPM_P1;HPM_P2
2021/03/18 00:02:45;;;;;;;8.85;5.20;;;;;;;1.48;71.33;98921.91;258843;1107;23065;-76
2021/03/18 00:07:48;;;;;;;8.97;5.00;;;;;;;1.47;71.12;98933.49;258955;1108;26147;-77
2021/03/18 00:12:50;;;;;;;8.13;4.67;;;;;;;1.45;70.20;98929.46;258984;1108;23032;-76
2021/03/18 00:17:53;;;;;;;8.40;4.60;;;;;;;1.45;71.35;98932.89;259249;1109;23073;-76
2021/03/18 00:22:56;;;;;;;8.63;4.57;;;;;;;1.45;71.31;98929.46;259014;1109;23027;-76
2021/03/18 00:27:59;;;;;;;6.87;4.07;;;;;;;1.44;70.79;98917.28;259028;1107;23054;-77
2021/03/18 00:33:01;;;;;;;6.77;4.57;;;;;;;1.43;70.70;98916.48;259016;1107;23020;-76
2021/03/18 00:38:04;;;;;;;11.83;5.10;;;;;;;1.40;71.02;98919.58;258921;1109;23034;-76
2021/03/18 00:43:09;;;;;;;8.50;4.95;;;;;;;1.38;71.15;98921.63;258870;1107;23073;-76
2021/03/18 00:48:12;;;;;;;8.60;4.67;;;;;;;1.36;71.12;98926.34;258999;1109;23023;-76
2021/03/18 00:53:19;;;;;;;9.27;4.87;;;;;;;1.34;70.96;98923.10;259033;1108;26406;-75
2021/03/18 00:58:22;;;;;;;8.07;4.60;;;;;;;1.32;71.99;98918.05;259082;1108;23670;-75
2021/03/18 01:03:26;;;;;;;8.35;4.95;;;;;;;1.32;71.71;98918.05;258993;1107;23187;-76
2021/03/18 01:08:33;;;;;;;8.70;4.33;;;;;;;1.32;72.13;98911.98;258986;1109;24484;-77
2021/03/18 01:13:36;;;;;;;7.80;4.53;;;;;;;1.30;71.53;98906.92;259163;1108;23177;-77
2021/03/18 01:18:43;;;;;;;6.17;4.13;;;;;;;1.29;72.08;98912.43;258715;1108;23002;-77
2021/03/18 01:23:47;;;;;;;7.53;4.20;;;;;;;1.24;71.78;98899.88;258955;1108;23080;-76
2021/03/18 01:28:49;;;;;;;7.70;4.27;;;;;;;1.19;71.92;98900.56;259044;1108;23513;-77
2021/03/18 01:33:51;;;;;;;8.43;4.20;;;;;;;1.16;72.35;98898.38;258942;1108;23151;-76
2021/03/18 01:38:53;;;;;;;9.47;4.37;;;;;;;1.13;72.72;98908.56;258940;1109;23018;-77
2021/03/18 01:43:56;;;;;;;9.20;3.80;;;;;;;1.08;72.44;98906.61;259124;1109;23089;-76
2021/03/18 01:49:00;;;;;;;7.90;3.67;;;;;;;1.05;72.77;98896.50;258999;1108;23267;-76
2021/03/18 01:54:03;;;;;;;7.97;4.20;;;;;;;1.06;72.80;98911.28;259021;1109;23510;-75
2021/03/18 01:59:05;;;;;;;8.57;4.37;;;;;;;1.06;73.16;98898.09;258840;1109;23023;-76
2021/03/18 02:04:08;;;;;;;6.23;4.43;;;;;;;1.06;72.90;98903.37;258894;1108;23073;-76
2021/03/18 02:09:10;;;;;;;7.27;4.13;;;;;;;1.04;72.47;98902.00;258794;1108;23147;-75
2021/03/18 02:14:12;;;;;;;8.30;4.47;;;;;;;1.03;73.08;98911.73;258909;1109;23021;-75
2021/03/18 02:19:56;;;;;;;7.13;4.43;;;;;;;0.97;73.13;98907.36;258864;1108;23202;-75
2021/03/18 02:25:56;;;;;;;7.43;4.30;;;;;;;0.95;73.07;98906.76;259055;1108;25583;-75
2021/03/18 02:31:01;;;;;;;7.80;4.85;;;;;;;0.90;73.10;98904.80;258136;1110;23022;-75
2021/03/18 02:36:10;;;;;;;9.60;5.27;;;;;;;0.83;73.50;98915.42;258767;1108;23061;-75
2021/03/18 02:41:18;;;;;;;11.07;5.40;;;;;;;0.77;73.85;98908.40;258869;1107;22988;-76
2021/03/18 02:46:22;;;;;;;10.77;5.87;;;;;;;0.75;73.70;98910.44;258930;1108;23872;-77
2021/03/18 02:51:29;;;;;;;10.77;6.40;;;;;;;0.71;74.27;98914.54;259001;1107;24085;-76
2021/03/18 02:56:33;;;;;;;12.23;6.77;;;;;;;0.65;73.51;98910.16;258755;1108;23083;-76
2021/03/18 03:01:36;;;;;;;9.70;6.40;;;;;;;0.61;73.93;98917.69;259045;1108;27530;-77
2021/03/18 03:06:40;;;;;;;9.57;5.77;;;;;;;0.58;74.05;98925.25;259003;1108;23073;-76
2021/03/18 03:11:44;;;;;;;9.47;5.63;;;;;;;0.53;74.17;98919.81;258924;1108;23202;-76
2021/03/18 03:16:46;;;;;;;10.90;5.40;;;;;;;0.46;75.02;98919.88;258990;1108;23086;-77
2021/03/18 03:21:50;;;;;;;9.30;4.93;;;;;;;0.40;74.87;98921.56;259095;1108;23220;-75
2021/03/18 03:26:56;;;;;;;8.90;5.43;;;;;;;0.38;75.32;98928.06;258989;1108;22978;-76
2021/03/18 03:32:00;;;;;;;8.95;5.00;;;;;;;0.32;75.32;98921.84;259124;1109;26504;-77
2021/03/18 03:37:05;;;;;;;8.70;4.67;;;;;;;0.26;75.35;98926.14;258992;1108;23236;-77
2021/03/18 03:42:09;;;;;;;11.83;6.23;;;;;;;0.24;75.05;98927.38;259040;1108;23022;-76
2021/03/18 03:47:12;;;;;;;12.53;4.50;;;;;;;0.19;75.11;98921.98;258999;1109;23070;-76
2021/03/18 03:52:23;;;;;;;10.73;5.53;;;;;;;0.15;75.80;98929.50;259145;1107;23016;-76
2021/03/18 03:57:37;;;;;;;9.77;5.33;;;;;;;0.16;75.25;98921.38;259139;1109;23357;-77
2021/03/18 04:02:42;;;;;;;10.53;5.50;;;;;;;0.19;75.12;98929.88;259058;1108;23020;-77
2021/03/18 04:07:45;;;;;;;7.57;4.63;;;;;;;0.21;75.72;98926.02;259107;1108;23073;-77
2021/03/18 04:12:47;;;;;;;11.63;6.43;;;;;;;0.24;75.92;98927.38;259049;1107;26399;-76
2021/03/18 04:17:53;;;;;;;11.07;5.93;;;;;;;0.24;75.66;98933.48;259083;1109;23391;-76
2021/03/18 04:23:00;;;;;;;11.73;5.30;;;;;;;0.20;76.20;98932.30;259064;1108;23048;-76
2021/03/18 04:28:04;;;;;;;9.53;4.63;;;;;;;0.20;76.36;98936.74;259119;1108;23022;-76
2021/03/18 04:33:07;;;;;;;7.97;4.50;;;;;;;0.20;76.49;98931.47;259026;1108;23083;-76
2021/03/18 04:38:09;;;;;;;9.37;4.60;;;;;;;0.19;76.27;98940.42;258986;1109;23027;-77
2021/03/18 04:43:12;;;;;;;9.07;5.10;;;;;;;0.18;75.58;98931.69;259059;1107;23023;-76
2021/03/18 04:48:17;;;;;;;9.80;5.63;;;;;;;0.20;76.06;98942.84;258940;1107;23087;-77
2021/03/18 04:53:21;;;;;;;9.50;5.40;;;;;;;0.18;76.48;98946.70;258911;1108;23110;-77
2021/03/18 04:58:24;;;;;;;9.03;5.63;;;;;;;0.13;75.95;98948.16;258912;1107;23052;-76
2021/03/18 05:03:28;;;;;;;11.37;5.43;;;;;;;0.08;75.53;98950.62;258997;1108;23068;-76
2021/03/18 05:08:32;;;;;;;7.87;4.70;;;;;;;0.00;76.06;98956.18;259042;1107;23088;-76
2021/03/18 05:13:36;;;;;;;11.00;5.47;;;;;;;-0.07;75.87;98952.77;259185;1109;23020;-76
2021/03/18 05:18:39;;;;;;;9.30;4.87;;;;;;;-0.10;76.29;98958.47;258724;1108;24367;-77
2021/03/18 05:23:43;;;;;;;12.40;6.07;;;;;;;-0.12;75.56;98956.05;259020;1109;23022;-76
2021/03/18 05:28:45;;;;;;;14.30;6.07;;;;;;;-0.11;75.33;98962.94;259136;1108;24364;-76
2021/03/18 05:33:47;;;;;;;14.93;6.50;;;;;;;-0.10;76.42;98969.83;259018;1109;23073;-77
2021/03/18 05:38:49;;;;;;;12.17;6.70;;;;;;;-0.10;76.52;98974.27;259068;1109;23192;-75
2021/03/18 05:43:51;;;;;;;10.70;6.13;;;;;;;-0.14;76.46;98971.27;259143;1109;23157;-77
2021/03/18 05:48:53;;;;;;;10.67;5.63;;;;;;;-0.19;75.83;98976.36;259450;1108;23073;-77
2021/03/18 05:53:57;;;;;;;10.73;5.57;;;;;;;-0.21;76.39;98986.28;258931;1108;23077;-76
2021/03/18 05:59:01;;;;;;;10.53;5.77;;;;;;;-0.28;76.23;98986.35;259363;1109;23054;-76
2021/03/18 06:04:03;;;;;;;10.43;5.37;;;;;;;-0.36;76.30;98997.92;258999;1109;23060;-76
2021/03/18 06:09:07;;;;;;;12.43;5.70;;;;;;;-0.31;76.34;98999.12;259006;1108;23017;-76
2021/03/18 06:14:09;;;;;;;12.47;5.87;;;;;;;-0.25;76.77;98996.45;259058;1108;23094;-76
2021/03/18 06:19:12;;;;;;;10.17;5.60;;;;;;;-0.20;76.24;98995.80;258957;1108;23026;-76
2021/03/18 06:24:15;;;;;;;12.27;6.13;;;;;;;-0.27;75.68;99009.00;259093;1108;23351;-77
2021/03/18 06:29:38;;;;;;;12.37;6.03;;;;;;;-0.32;74.99;99019.38;258968;1109;23071;-76
2021/03/18 06:34:47;;;;;;;10.87;5.27;;;;;;;-0.32;76.07;99014.12;259154;1108;23483;-76
2021/03/18 06:39:49;;;;;;;8.27;4.80;;;;;;;-0.28;75.09;99017.95;259078;1107;27765;-77
2021/03/18 06:45:15;;;;;;;9.63;5.07;;;;;;;-0.24;75.18;99019.14;259297;1109;23091;-76
2021/03/18 06:50:21;;;;;;;9.45;4.90;;;;;;;-0.18;75.52;99028.81;259451;1107;23202;-76
2021/03/18 06:55:29;;;;;;;9.57;4.97;;;;;;;-0.10;74.44;99021.67;259077;1108;25937;-76
2021/03/18 07:00:35;;;;;;;8.20;4.97;;;;;;;0.06;74.71;99021.17;259451;1108;23101;-77
2021/03/18 07:05:41;;;;;;;9.47;4.30;;;;;;;0.28;74.80;99004.98;259915;1108;23033;-78
2021/03/18 07:10:44;;;;;;;7.70;3.70;;;;;;;0.48;74.59;99008.27;259341;1109;23324;-77
2021/03/18 07:15:48;;;;;;;7.97;4.70;;;;;;;0.65;73.85;99015.63;259627;1108;23027;-77
2021/03/18 07:21:10;;;;;;;6.57;4.27;;;;;;;0.82;74.62;99003.47;259812;1108;23858;-79
2021/03/18 07:26:24;;;;;;;9.10;5.10;;;;;;;1.07;74.06;99004.45;261386;1108;23074;-78
2021/03/18 07:31:27;;;;;;;7.33;4.43;;;;;;;1.32;73.62;99004.36;259955;1108;23226;-77
2021/03/18 07:36:29;;;;;;;12.70;6.10;;;;;;;1.51;72.91;99002.48;259599;1108;23021;-78
2021/03/18 07:41:33;;;;;;;9.35;5.50;;;;;;;1.64;71.93;98999.67;260067;1107;23030;-77
2021/03/18 07:46:37;;;;;;;10.80;5.87;;;;;;;1.79;71.55;98995.81;259562;1108;23705;-78
2021/03/18 07:51:46;;;;;;;8.35;4.90;;;;;;;1.95;72.07;98999.66;259746;1109;23077;-76
2021/03/18 07:56:54;;;;;;;6.00;3.70;;;;;;;2.04;70.36;98993.00;259448;1107;23507;-78
2021/03/18 08:02:19;;;;;;;6.33;3.27;;;;;;;1.96;69.23;98991.51;259710;1108;23634;-77
2021/03/18 08:07:49;;;;;;;5.87;3.27;;;;;;;2.01;69.60;98991.61;259566;1109;26967;-77
2021/03/18 08:13:09;;;;;;;5.40;2.80;;;;;;;2.16;69.42;98985.11;260235;1108;23017;-77
2021/03/18 08:18:15;;;;;;;;;;;;;;;2.35;69.35;98989.27;260492;1108;23012;-77
2021/03/18 08:23:24;;;;;;;6.10;3.03;;;;;;;2.54;69.23;98984.66;259893;1108;21520;-76
2021/03/18 08:28:35;;;;;;;6.80;4.00;;;;;;;2.91;69.01;98988.91;260469;1107;23129;-76
2021/03/18 08:33:43;;;;;;;6.67;3.67;;;;;;;3.43;69.01;98985.43;259691;1109;23024;-76
2021/03/18 08:38:48;;;;;;;5.17;3.03;;;;;;;3.60;67.56;98983.62;259911;1109;23078;-76
2021/03/18 08:44:12;;;;;;;4.80;3.30;;;;;;;3.46;66.53;98971.70;259593;1108;23033;-76
2021/03/18 08:49:36;;;;;;;4.73;2.50;;;;;;;3.15;65.98;98984.36;259352;1108;23229;-77
2021/03/18 08:54:38;;;;;;;3.90;2.60;;;;;;;3.22;66.21;98978.94;259389;1107;23057;-77
2021/03/18 08:59:50;;;;;;;3.77;2.40;;;;;;;3.51;66.22;98974.46;259360;1107;23021;-76
2021/03/18 09:04:52;;;;;;;4.93;2.97;;;;;;;3.83;65.77;98976.59;259321;1108;23021;-77
2021/03/18 09:10:12;;;;;;;4.30;2.63;;;;;;;4.02;65.05;98971.09;259567;1108;22962;-76
2021/03/18 09:15:19;;;;;;;3.37;2.47;;;;;;;4.20;64.66;98970.84;259517;1109;25919;-77
2021/03/18 09:20:25;;;;;;;4.83;2.77;;;;;;;4.23;63.54;98975.66;259798;1109;23211;-77
2021/03/18 09:25:27;;;;;;;4.90;1.97;;;;;;;4.40;62.28;98977.51;259573;1107;23210;-77
2021/03/18 09:30:36;;;;;;;4.43;2.30;;;;;;;4.59;62.01;98967.45;259555;1107;26057;-77
2021/03/18 09:35:39;;;;;;;5.07;2.37;;;;;;;4.69;61.51;98959.62;259424;1108;23064;-77
2021/03/18 09:40:41;;;;;;;3.77;2.33;;;;;;;4.54;60.17;98964.71;259790;1107;23516;-76
2021/03/18 09:45:53;;;;;;;4.47;2.90;;;;;;;4.34;60.73;98959.89;259684;1108;23454;-78
2021/03/18 09:51:08;;;;;;;3.77;2.40;;;;;;;4.28;61.17;98961.66;260040;1107;23269;-75
2021/03/18 09:56:13;;;;;;;2.90;2.20;;;;;;;4.25;60.58;98964.81;259719;1107;23234;-77
2021/03/18 10:01:18;;;;;;;1.43;1.20;;;;;;;4.24;59.88;98958.72;259686;1108;23221;-76
2021/03/18 10:06:26;;;;;;;1.30;1.10;;;;;;;4.44;59.77;98949.45;259549;1109;23096;-77
2021/03/18 10:11:34;;;;;;;1.23;1.00;;;;;;;4.70;58.69;98937.34;259386;1108;23037;-77
2021/03/18 10:16:40;;;;;;;3.43;2.03;;;;;;;4.79;56.63;98948.33;259838;1107;27687;-77
2021/03/18 10:21:44;;;;;;;4.80;1.80;;;;;;;4.49;55.05;98941.58;259961;1108;25240;-78
2021/03/18 10:26:48;;;;;;;1.40;1.20;;;;;;;4.17;56.38;98936.04;259852;1108;23083;-77
2021/03/18 10:31:50;;;;;;;2.17;1.17;;;;;;;4.06;56.42;98941.20;259551;1107;23154;-77
2021/03/18 10:36:53;;;;;;;2.07;1.50;;;;;;;4.11;56.52;98932.51;259789;1108;23027;-76
2021/03/18 10:42:01;;;;;;;2.90;1.20;;;;;;;4.19;56.02;98933.97;259578;1107;23226;-77
2021/03/18 10:47:22;;;;;;;2.77;1.50;;;;;;;4.20;56.10;98931.07;259775;1109;23021;-77
2021/03/18 10:52:25;;;;;;;2.93;1.70;;;;;;;4.07;56.71;98918.13;259533;1108;23304;-77
2021/03/18 10:57:28;;;;;;;2.57;1.47;;;;;;;3.82;56.03;98926.48;259322;1109;22972;-76
2021/03/18 11:02:31;;;;;;;2.60;1.80;;;;;;;3.69;57.04;98919.66;259471;1107;23232;-76
2021/03/18 11:07:33;;;;;;;5.10;2.50;;;;;;;3.75;56.89;98918.71;259985;1108;27355;-76
2021/03/18 11:12:55;;;;;;;3.70;2.40;;;;;;;3.82;57.10;98922.00;260534;1109;23251;-76
2021/03/18 11:18:07;;;;;;;6.07;2.50;;;;;;;3.87;57.51;98902.72;260112;1109;23876;-77
2021/03/18 11:23:11;;;;;;;5.05;3.10;;;;;;;3.94;57.92;98900.70;260025;1108;23080;-77
2021/03/18 11:28:14;;;;;;;6.70;3.83;;;;;;;3.83;58.24;98904.24;259642;1109;23282;-77
2021/03/18 11:33:21;;;;;;;5.53;3.10;;;;;;;3.82;58.67;98915.88;259839;1107;23074;-77
2021/03/18 11:38:23;;;;;;;3.07;2.17;;;;;;;3.94;57.66;98898.88;259764;1108;26441;-78
2021/03/18 11:43:26;;;;;;;2.20;1.53;;;;;;;4.29;57.98;98886.38;260004;1107;23128;-77
2021/03/18 11:48:28;;;;;;;3.37;2.13;;;;;;;4.44;56.94;98899.84;259624;1108;23017;-77
2021/03/18 11:53:32;;;;;;;2.80;2.10;;;;;;;4.27;57.00;98885.83;261884;1109;23065;-75
2021/03/18 11:58:34;;;;;;;3.55;2.35;;;;;;;4.20;57.61;98878.03;259885;1108;23824;-76
2021/03/18 12:03:36;;;;;;;3.00;1.80;;;;;;;4.37;57.41;98885.16;260197;1108;22978;-76
2021/03/18 12:08:39;;;;;;;2.87;1.60;;;;;;;4.63;57.46;98879.14;260998;1107;23398;-76
2021/03/18 12:13:41;;;;;;;2.77;1.77;;;;;;;4.95;55.86;98859.88;259777;1107;23167;-76
2021/03/18 12:18:47;;;;;;;2.17;1.67;;;;;;;4.96;54.66;98868.62;260310;1108;27320;-76
2021/03/18 12:23:49;;;;;;;2.40;1.70;;;;;;;4.77;56.10;98849.56;259127;1108;23554;-76
2021/03/18 12:28:51;;;;;;;5.90;3.30;;;;;;;4.69;56.46;98847.36;259383;1108;26083;-76
2021/03/18 12:33:53;;;;;;;9.47;5.07;;;;;;;4.71;57.28;98853.22;259434;1108;23828;-77
2021/03/18 12:38:56;;;;;;;10.47;5.53;;;;;;;4.71;56.54;98831.98;260166;1108;23024;-76
2021/03/18 12:44:05;;;;;;;6.30;3.70;;;;;;;4.78;56.66;98848.52;259498;1107;23167;-76
2021/03/18 12:49:08;;;;;;;5.67;4.40;;;;;;;4.61;56.20;98853.89;259582;1109;23037;-76
2021/03/18 12:54:10;;;;;;;6.33;4.20;;;;;;;4.28;56.20;98851.10;259624;1109;23086;-76
2021/03/18 12:59:12;;;;;;;7.67;5.13;;;;;;;3.93;56.73;98841.61;259464;1108;23424;-76
2021/03/18 13:04:15;;;;;;;6.40;4.45;;;;;;;3.76;57.71;98838.97;259415;1108;23002;-77
2021/03/18 13:09:17;;;;;;;6.77;4.53;;;;;;;3.65;57.75;98836.39;259326;1108;23777;-76
2021/03/18 13:14:23;;;;;;;8.10;5.53;;;;;;;3.70;57.92;98828.53;259174;1107;23033;-77
2021/03/18 13:19:27;;;;;;;10.30;5.43;;;;;;;3.71;57.91;98815.04;259486;1109;23041;-77
2021/03/18 13:24:29;;;;;;;11.40;6.50;;;;;;;3.74;58.65;98813.76;259411;1108;23074;-77
2021/03/18 13:29:32;;;;;;;7.43;3.00;;;;;;;3.65;55.97;98815.20;259410;1107;23083;-76
2021/03/18 13:34:35;;;;;;;3.57;2.20;;;;;;;3.60;55.46;98808.77;259302;1108;23033;-76
2021/03/18 13:39:37;;;;;;;4.37;3.30;;;;;;;3.78;56.04;98793.68;259212;1108;23426;-77
2021/03/18 13:44:46;;;;;;;6.17;2.90;;;;;;;4.01;54.76;98781.27;259496;1108;23078;-77
2021/03/18 13:49:49;;;;;;;5.67;3.50;;;;;;;4.05;54.17;98774.43;259230;1108;23099;-77
2021/03/18 13:54:51;;;;;;;3.73;2.80;;;;;;;3.92;54.35;98786.98;259519;1108;22987;-77
2021/03/18 13:59:53;;;;;;;4.67;3.00;;;;;;;3.72;54.55;98776.91;259429;1108;26261;-76
2021/03/18 14:04:55;;;;;;;4.67;3.63;;;;;;;3.85;55.50;98772.31;259419;1109;23458;-76
2021/03/18 14:09:58;;;;;;;7.00;4.13;;;;;;;4.15;55.86;98768.45;259543;1108;24771;-75
2021/03/18 14:15:14;;;;;;;5.90;3.90;;;;;;;4.49;54.71;98765.66;259319;1107;23205;-76
2021/03/18 14:20:22;;;;;;;4.53;3.63;;;;;;;4.49;57.23;98770.97;259642;1109;23075;-76
2021/03/18 14:25:27;;;;;;;5.25;3.52;;;;;;;4.06;58.59;98781.34;259128;1107;23097;-76
2021/03/18 14:30:33;;;;;;;5.50;4.10;;;;;;;3.62;60.59;98787.34;259470;1108;23297;-75
2021/03/18 14:35:37;;;;;;;4.03;2.63;;;;;;;3.29;60.94;98783.66;259960;1107;23394;-76
2021/03/18 14:40:41;;;;;;;4.90;3.00;;;;;;;3.35;62.30;98781.90;259339;1108;23023;-76
2021/03/18 14:45:44;;;;;;;3.70;2.43;;;;;;;3.62;62.59;98763.50;259970;1107;23083;-76
2021/03/18 14:50:48;;;;;;;5.33;3.30;;;;;;;3.82;61.61;98760.35;259982;1108;23247;-75
2021/03/18 14:55:51;;;;;;;3.15;2.60;;;;;;;4.04;61.07;98767.52;259631;1108;24524;-76
2021/03/18 15:01:14;;;;;;;5.40;3.73;;;;;;;4.14;60.13;98756.23;259645;1109;23104;-77
2021/03/18 15:06:16;;;;;;;5.27;3.80;;;;;;;3.81;60.20;98769.34;260202;1107;23002;-75
2021/03/18 15:11:19;;;;;;;4.93;3.70;;;;;;;3.28;62.27;98758.22;259991;1108;23067;-76
2021/03/18 15:16:21;;;;;;;2.47;1.80;;;;;;;2.66;63.30;98772.23;259369;1109;22975;-76
2021/03/18 15:21:23;;;;;;;3.77;2.30;;;;;;;2.07;64.72;98762.66;259105;1108;23024;-77
2021/03/18 15:26:27;;;;;;;2.55;1.50;;;;;;;1.74;64.87;98757.98;259349;1109;23027;-76
2021/03/18 15:31:30;;;;;;;2.03;1.80;;;;;;;1.59;64.70;98742.60;259340;1109;23865;-77
2021/03/18 15:36:35;;;;;;;3.73;1.87;;;;;;;1.52;65.76;98743.50;259006;1109;23010;-77
2021/03/18 15:41:37;;;;;;;3.50;1.90;;;;;;;1.43;65.54;98738.79;259279;1109;23090;-77
2021/03/18 15:46:40;;;;;;;5.80;2.87;;;;;;;1.35;66.49;98734.67;259201;1108;23223;-76
2021/03/18 15:51:46;;;;;;;3.90;2.30;;;;;;;1.29;66.27;98736.39;259189;1108;23006;-77
2021/03/18 15:56:48;;;;;;;5.55;3.20;;;;;;;1.33;66.50;98734.08;259537;1108;23366;-75
2021/03/18 16:01:51;;;;;;;6.90;4.17;;;;;;;1.33;66.70;98739.36;259277;1108;23020;-77
2021/03/18 16:07:13;;;;;;;12.23;5.03;;;;;;;1.32;66.53;98749.13;259337;1108;23223;-76
2021/03/18 16:12:16;;;;;;;12.60;6.27;;;;;;;1.30;66.68;98760.94;259384;1108;22949;-77
2021/03/18 16:17:18;;;;;;;13.45;6.85;;;;;;;1.23;68.25;98760.24;259178;1107;23015;-76
2021/03/18 16:22:22;;;;;;;12.60;6.17;;;;;;;1.17;68.82;98762.75;259304;1107;24488;-76
2021/03/18 16:27:25;;;;;;;8.03;4.57;;;;;;;1.04;68.53;98743.70;259479;1109;23190;-76
2021/03/18 16:32:29;;;;;;;9.45;4.90;;;;;;;0.86;69.99;98755.92;259282;1109;23014;-77
2021/03/18 16:37:35;;;;;;;7.70;4.70;;;;;;;0.78;70.26;98758.87;259412;1109;26251;-77
2021/03/18 16:42:38;;;;;;;10.30;5.97;;;;;;;0.68;70.44;98759.42;259327;1108;24059;-77
2021/03/18 16:47:42;;;;;;;10.77;5.30;;;;;;;0.56;70.97;98746.20;259482;1109;23532;-77
2021/03/18 16:52:45;;;;;;;11.07;5.53;;;;;;;0.42;71.16;98756.11;259390;1108;22996;-76
2021/03/18 16:57:48;;;;;;;12.47;6.70;;;;;;;0.28;71.30;98758.11;259489;1108;23249;-77
2021/03/18 17:02:54;;;;;;;18.40;10.30;;;;;;;0.13;71.34;98747.94;259391;1109;23475;-77
2021/03/18 17:07:57;;;;;;;24.77;11.80;;;;;;;0.08;72.12;98753.05;259399;1109;23112;-77
2021/03/18 17:12:59;;;;;;;25.37;12.23;;;;;;;0.04;72.60;98757.15;260267;1108;23139;-76
2021/03/18 17:18:03;;;;;;;27.80;12.83;;;;;;;-0.02;73.19;98748.30;259769;1108;23076;-76
2021/03/18 17:23:07;;;;;;;32.07;14.57;;;;;;;-0.15;72.73;98740.56;259330;1107;27927;-77
2021/03/18 17:28:13;;;;;;;31.00;16.17;;;;;;;-0.23;73.45;98728.47;259083;1108;23187;-77
2021/03/18 17:33:17;;;;;;;24.77;14.17;;;;;;;-0.30;74.13;98735.64;259313;1108;26630;-77
2021/03/18 17:38:20;;;;;;;23.97;12.53;;;;;;;-0.38;74.24;98730.66;259561;1108;23023;-77
2021/03/18 17:43:25;;;;;;;19.97;12.37;;;;;;;-0.42;74.06;98738.20;259170;1108;23021;-77
2021/03/18 17:48:28;;;;;;;17.77;9.60;;;;;;;-0.47;74.45;98730.14;259086;1108;23087;-76
2021/03/18 17:53:33;;;;;;;23.20;11.97;;;;;;;-0.51;75.19;98731.59;259314;1108;23041;-77
2021/03/18 17:58:36;;;;;;;25.13;13.63;;;;;;;-0.54;74.71;98730.20;258914;1109;23084;-76
2021/03/18 18:03:38;;;;;;;58.63;25.87;;;;;;;-0.51;75.65;98726.33;259187;1108;23027;-77
2021/03/18 18:08:41;;;;;;;28.17;14.00;;;;;;;-0.58;74.68;98726.39;259189;1108;23030;-77
2021/03/18 18:13:43;;;;;;;24.97;13.50;;;;;;;-0.70;75.48;98728.11;259197;1108;23040;-77
2021/03/18 18:18:45;;;;;;;33.37;16.60;;;;;;;-0.80;75.78;98725.17;259122;1108;23026;-77
2021/03/18 18:23:47;;;;;;;32.73;16.40;;;;;;;-0.83;75.53;98725.61;259076;1108;23494;-77
2021/03/18 18:28:49;;;;;;;31.37;16.13;;;;;;;-0.82;75.85;98724.59;259054;1109;23048;-77
2021/03/18 18:33:53;;;;;;;30.33;16.30;;;;;;;-0.83;75.77;98726.41;259350;1108;23037;-77
2021/03/18 18:38:56;;;;;;;31.70;16.40;;;;;;;-0.80;76.30;98717.28;259161;1108;26386;-77
2021/03/18 18:43:58;;;;;;;32.43;17.10;;;;;;;-0.86;75.87;98711.85;259073;1109;23029;-77
2021/03/18 18:49:01;;;;;;;31.80;16.77;;;;;;;-0.88;76.90;98713.11;259182;1109;23007;-76
2021/03/18 18:54:04;;;;;;;32.33;16.40;;;;;;;-0.86;76.78;98722.38;259163;1109;22991;-77
2021/03/18 18:59:07;;;;;;;31.13;16.00;;;;;;;-0.86;76.60;98711.06;259379;1108;23046;-76
2021/03/18 19:04:09;;;;;;;35.15;16.75;;;;;;;-0.87;76.52;98715.52;259396;1107;23020;-75
2021/03/18 19:09:11;;;;;;;30.97;15.63;;;;;;;-0.82;76.99;98721.97;259058;1108;23015;-77
2021/03/18 19:14:13;;;;;;;34.33;17.73;;;;;;;-0.86;77.67;98719.74;259116;1108;23077;-77
2021/03/18 19:19:21;;;;;;;46.17;20.73;;;;;;;-0.93;77.29;98724.26;259075;1107;23017;-77
2021/03/18 19:24:24;;;;;;;41.70;20.13;;;;;;;-1.04;77.28;98712.59;259105;1109;23017;-78
2021/03/18 19:29:26;;;;;;;51.27;24.17;;;;;;;-1.11;77.16;98709.22;259296;1109;23196;-76
2021/03/18 19:34:28;;;;;;;46.00;23.93;;;;;;;-1.12;77.82;98705.00;259369;1107;22999;-77
2021/03/18 19:39:32;;;;;;;43.10;21.00;;;;;;;-1.04;78.04;98711.80;259194;1108;23010;-77
2021/03/18 19:44:35;;;;;;;41.23;20.13;;;;;;;-0.94;78.34;98706.86;259407;1108;23020;-77
2021/03/18 19:49:38;;;;;;;37.10;18.60;;;;;;;-0.82;78.46;98704.34;259978;1107;23072;-77
2021/03/18 19:54:41;;;;;;;40.43;20.17;;;;;;;-0.67;78.05;98698.77;259558;1109;23348;-77
2021/03/18 19:59:44;;;;;;;39.23;20.33;;;;;;;-0.62;77.63;98704.16;259124;1107;23029;-76
2021/03/18 20:04:47;;;;;;;37.40;19.75;;;;;;;-0.61;78.30;98695.25;259160;1109;23440;-76
2021/03/18 20:09:50;;;;;;;46.50;22.23;;;;;;;-0.62;77.43;98687.58;259238;1107;23034;-77
2021/03/18 20:14:51;;;;;;;39.87;20.37;;;;;;;-0.65;78.17;98691.44;259136;1108;23199;-76
2021/03/18 20:20:08;;;;;;;45.25;24.72;;;;;;;-0.73;77.54;98695.17;259158;1108;23845;-76
2021/03/18 20:25:13;;;;;;;49.53;24.72;;;;;;;-0.83;77.89;98692.21;259109;1108;23039;-77
2021/03/18 20:30:20;;;;;;;40.90;22.53;;;;;;;-0.99;78.08;98688.31;259151;1108;23340;-78
2021/03/18 20:35:23;;;;;;;67.50;30.15;;;;;;;-1.17;78.29;98690.89;259084;1108;23031;-77
2021/03/18 20:40:27;;;;;;;109.97;42.83;;;;;;;-1.32;78.49;98689.35;259221;1109;23086;-77
2021/03/18 20:45:30;;;;;;;98.90;43.27;;;;;;;-1.45;78.31;98687.63;259231;1109;23085;-77
2021/03/18 20:50:33;;;;;;;103.60;41.23;;;;;;;-1.52;79.26;98684.23;259204;1107;23064;-75
2021/03/18 20:55:36;;;;;;;66.17;32.83;;;;;;;-1.55;78.68;98677.58;259283;1108;23199;-77
2021/03/18 21:00:41;;;;;;;53.80;28.47;;;;;;;-1.52;78.81;98678.98;259295;1106;23067;-76
2021/03/18 21:05:46;;;;;;;51.17;25.73;;;;;;;-1.46;79.55;98678.12;259134;1109;23020;-76
2021/03/18 21:10:48;;;;;;;46.97;24.67;;;;;;;-1.36;80.07;98685.53;258767;1109;23073;-78
2021/03/18 21:15:51;;;;;;;43.70;22.97;;;;;;;-1.22;79.44;98673.11;259255;1109;23073;-77
2021/03/18 21:20:54;;;;;;;43.80;21.63;;;;;;;-1.14;80.32;98677.31;259078;1108;24504;-77
2021/03/18 21:25:57;;;;;;;43.87;21.83;;;;;;;-1.10;79.72;98671.40;259052;1108;23031;-77
2021/03/18 21:30:59;;;;;;;35.60;19.43;;;;;;;-1.10;78.79;98675.86;258961;1109;23187;-77
2021/03/18 21:36:04;;;;;;;36.00;18.40;;;;;;;-1.07;79.96;98685.95;259081;1108;23353;-77
2021/03/18 21:41:06;;;;;;;31.80;17.10;;;;;;;-1.04;79.39;98677.63;259141;1108;26073;-77
2021/03/18 21:46:08;;;;;;;29.67;16.40;;;;;;;-1.05;79.28;98686.52;259001;1108;23170;-77
2021/03/18 21:51:12;;;;;;;34.33;16.90;;;;;;;-1.11;79.50;98687.39;259210;1109;23472;-77
2021/03/18 21:56:14;;;;;;;34.50;17.67;;;;;;;-1.12;78.99;98683.97;258905;1107;23023;-77
2021/03/18 22:01:18;;;;;;;39.90;19.23;;;;;;;-1.07;79.77;98691.20;259065;1108;23012;-76
2021/03/18 22:06:20;;;;;;;38.20;19.63;;;;;;;-1.01;79.26;98677.19;258739;1109;23223;-76
2021/03/18 22:11:24;;;;;;;46.30;22.23;;;;;;;-0.91;80.06;98679.33;258867;1108;23148;-76
2021/03/18 22:16:26;;;;;;;41.67;21.30;;;;;;;-0.82;79.73;98675.42;259006;1109;23079;-76
2021/03/18 22:21:30;;;;;;;43.63;20.30;;;;;;;-0.78;79.34;98671.33;258688;1109;27877;-76
2021/03/18 22:26:35;;;;;;;38.30;18.63;;;;;;;-0.78;79.57;98676.59;259181;1108;23088;-76
2021/03/18 22:31:37;;;;;;;37.90;19.45;;;;;;;-0.84;79.25;98671.39;259260;1107;23358;-76
2021/03/18 22:36:39;;;;;;;35.60;18.90;;;;;;;-0.98;79.73;98670.70;259100;1108;26067;-77
2021/03/18 22:41:42;;;;;;;40.80;20.90;;;;;;;-1.01;79.74;98674.55;258684;1109;23247;-76
2021/03/18 22:46:45;;;;;;;40.43;20.70;;;;;;;-0.93;79.69;98666.40;259018;1108;23015;-76
2021/03/18 22:51:53;;;;;;;38.03;19.43;;;;;;;-0.89;79.70;98670.20;259100;1109;23073;-76
2021/03/18 22:56:55;;;;;;;45.77;22.63;;;;;;;-0.80;80.24;98670.73;259138;1108;23526;-76
2021/03/18 23:01:57;;;;;;;43.27;20.67;;;;;;;-0.69;80.47;98658.70;258777;1108;23082;-76
2021/03/18 23:07:01;;;;;;;39.17;19.90;;;;;;;-0.59;80.22;98661.65;258955;1109;23361;-76
2021/03/18 23:12:04;;;;;;;35.60;18.53;;;;;;;-0.52;80.36;98662.38;259036;1109;23148;-75
2021/03/18 23:17:25;;;;;;;38.30;18.60;;;;;;;-0.47;79.75;98655.66;259215;1108;23208;-76
2021/03/18 23:22:34;;;;;;;40.40;18.07;;;;;;;-0.46;79.62;98665.14;259192;1108;27794;-75
2021/03/18 23:27:37;;;;;;;39.77;18.87;;;;;;;-0.45;78.96;98658.86;259055;1108;23802;-76
2021/03/18 23:32:40;;;;;;;37.10;19.17;;;;;;;-0.44;79.03;98668.38;258930;1107;23128;-76
2021/03/18 23:37:44;;;;;;;42.10;21.50;;;;;;;-0.40;78.69;98674.81;259237;1108;23019;-76